sensor_id;sensor_type;location;lat;lon;timestamp;temperature;humidity
51476;DHT22;37554;50.362;7.568;2022-09-09T00:01:42;22.20;58.10
51476;DHT22;37554;50.362;7.568;2022-09-09T00:07:07;22.20;58.20
51476;DHT22;37554;50.362;7.568;2022-09-09T00:09:46;22.20;58.20
51476;DHT22;37554;50.362;7.568;2022-09-09T00:14:59;22.20;58.30
51476;DHT22;37554;50.362;7.568;2022-09-09T00:17:42;22.20;58.40
51476;DHT22;37554;50.362;7.568;2022-09-09T00:20:12;22.20;58.40
51476;DHT22;37554;50.362;7.568;2022-09-09T00:22:49;22.10;58.30
51476;DHT22;37554;50.362;7.568;2022-09-09T00:28:28;22.10;58.60
51476;DHT22;37554;50.362;7.568;2022-09-09T00:31:04;22.10;58.40
51476;DHT22;37554;50.362;7.568;2022-09-09T00:33:34;22.10;58.40
51476;DHT22;37554;50.362;7.568;2022-09-09T00:36:00;22.10;58.40
51476;DHT22;37554;50.362;7.568;2022-09-09T00:38:40;22.10;58.40
51476;DHT22;37554;50.362;7.568;2022-09-09T00:41:17;22.10;58.40
51476;DHT22;37554;50.362;7.568;2022-09-09T00:43:54;22.10;58.40
51476;DHT22;37554;50.362;7.568;2022-09-09T00:57:26;22.10;58.40
51476;DHT22;37554;50.362;7.568;2022-09-09T01:00:17;22.10;58.40
51476;DHT22;37554;50.362;7.568;2022-09-09T01:08:01;22.00;58.50
51476;DHT22;37554;50.362;7.568;2022-09-09T01:10:49;22.00;58.50
51476;DHT22;37554;50.362;7.568;2022-09-09T01:13:29;22.10;58.80
51476;DHT22;37554;50.362;7.568;2022-09-09T01:15:58;22.00;58.60
51476;DHT22;37554;50.362;7.568;2022-09-09T01:18:29;22.10;58.60
51476;DHT22;37554;50.362;7.568;2022-09-09T01:24:08;22.10;58.90
51476;DHT22;37554;50.362;7.568;2022-09-09T01:26:43;22.00;58.70
51476;DHT22;37554;50.362;7.568;2022-09-09T01:29:13;22.00;58.60
51476;DHT22;37554;50.362;7.568;2022-09-09T01:31:41;22.00;58.70
51476;DHT22;37554;50.362;7.568;2022-09-09T01:34:12;22.00;58.70
51476;DHT22;37554;50.362;7.568;2022-09-09T01:37:02;22.00;58.70
51476;DHT22;37554;50.362;7.568;2022-09-09T01:39:30;22.00;58.80
51476;DHT22;37554;50.362;7.568;2022-09-09T01:41:56;21.90;58.70
51476;DHT22;37554;50.362;7.568;2022-09-09T01:44:22;22.00;58.70
51476;DHT22;37554;50.362;7.568;2022-09-09T01:46:48;22.00;58.80
51476;DHT22;37554;50.362;7.568;2022-09-09T01:49:14;21.90;58.70
51476;DHT22;37554;50.362;7.568;2022-09-09T01:51:42;21.90;58.70
51476;DHT22;37554;50.362;7.568;2022-09-09T01:54:08;21.90;58.80
51476;DHT22;37554;50.362;7.568;2022-09-09T01:56:43;21.90;59.00
51476;DHT22;37554;50.362;7.568;2022-09-09T02:02:34;21.90;58.80
51476;DHT22;37554;50.362;7.568;2022-09-09T02:07:48;21.90;58.80
51476;DHT22;37554;50.362;7.568;2022-09-09T02:13:18;21.90;59.00
51476;DHT22;37554;50.362;7.568;2022-09-09T02:18:48;21.90;59.40
51476;DHT22;37554;50.362;7.568;2022-09-09T02:21:17;21.90;59.00
51476;DHT22;37554;50.362;7.568;2022-09-09T02:23:43;21.90;59.00
51476;DHT22;37554;50.362;7.568;2022-09-09T02:26:13;21.90;59.00
51476;DHT22;37554;50.362;7.568;2022-09-09T02:28:45;21.90;59.00
51476;DHT22;37554;50.362;7.568;2022-09-09T02:31:12;21.90;59.10
51476;DHT22;37554;50.362;7.568;2022-09-09T02:33:42;21.90;59.10
51476;DHT22;37554;50.362;7.568;2022-09-09T02:36:11;21.90;59.10
51476;DHT22;37554;50.362;7.568;2022-09-09T02:38:47;21.90;59.10
51476;DHT22;37554;50.362;7.568;2022-09-09T02:41:30;21.80;59.10
51476;DHT22;37554;50.362;7.568;2022-09-09T02:43:57;21.80;59.20
51476;DHT22;37554;50.362;7.568;2022-09-09T02:49:05;21.80;59.20
51476;DHT22;37554;50.362;7.568;2022-09-09T02:54:28;21.80;59.20
51476;DHT22;37554;50.362;7.568;2022-09-09T02:57:23;21.80;59.50
51476;DHT22;37554;50.362;7.568;2022-09-09T02:59:51;21.80;59.20
51476;DHT22;37554;50.362;7.568;2022-09-09T03:02:20;21.80;59.30
51476;DHT22;37554;50.362;7.568;2022-09-09T03:04:45;21.80;59.30
51476;DHT22;37554;50.362;7.568;2022-09-09T03:07:16;21.70;59.20
51476;DHT22;37554;50.362;7.568;2022-09-09T03:09:43;21.70;59.30
51476;DHT22;37554;50.362;7.568;2022-09-09T03:12:09;21.70;59.30
51476;DHT22;37554;50.362;7.568;2022-09-09T03:14:36;21.70;59.40
51476;DHT22;37554;50.362;7.568;2022-09-09T03:17:04;21.70;59.40
51476;DHT22;37554;50.362;7.568;2022-09-09T03:19:30;21.70;59.50
51476;DHT22;37554;50.362;7.568;2022-09-09T03:21:59;21.70;59.50
51476;DHT22;37554;50.362;7.568;2022-09-09T03:24:25;21.70;59.60
51476;DHT22;37554;50.362;7.568;2022-09-09T03:26:51;21.70;59.70
51476;DHT22;37554;50.362;7.568;2022-09-09T03:29:17;21.70;59.70
51476;DHT22;37554;50.362;7.568;2022-09-09T03:31:44;21.60;59.70
51476;DHT22;37554;50.362;7.568;2022-09-09T03:34:10;21.60;59.80
51476;DHT22;37554;50.362;7.568;2022-09-09T03:36:36;21.70;59.80
51476;DHT22;37554;50.362;7.568;2022-09-09T03:39:03;21.60;59.90
51476;DHT22;37554;50.362;7.568;2022-09-09T03:41:29;21.70;60.00
51476;DHT22;37554;50.362;7.568;2022-09-09T03:43:55;21.60;59.90
51476;DHT22;37554;50.362;7.568;2022-09-09T03:46:22;21.60;60.00
51476;DHT22;37554;50.362;7.568;2022-09-09T03:48:48;21.60;60.00
51476;DHT22;37554;50.362;7.568;2022-09-09T03:51:14;21.60;59.90
51476;DHT22;37554;50.362;7.568;2022-09-09T03:53:41;21.60;60.00
51476;DHT22;37554;50.362;7.568;2022-09-09T03:56:07;21.60;60.00
51476;DHT22;37554;50.362;7.568;2022-09-09T03:58:33;21.60;60.00
51476;DHT22;37554;50.362;7.568;2022-09-09T04:01:08;21.60;60.00
51476;DHT22;37554;50.362;7.568;2022-09-09T04:03:38;21.60;60.00
51476;DHT22;37554;50.362;7.568;2022-09-09T04:06:05;21.60;60.00
51476;DHT22;37554;50.362;7.568;2022-09-09T04:08:32;21.60;60.00
51476;DHT22;37554;50.362;7.568;2022-09-09T04:10:58;21.60;60.00
51476;DHT22;37554;50.362;7.568;2022-09-09T04:13:27;21.60;60.00
51476;DHT22;37554;50.362;7.568;2022-09-09T04:16:00;21.60;60.00
51476;DHT22;37554;50.362;7.568;2022-09-09T04:18:26;21.60;60.00
51476;DHT22;37554;50.362;7.568;2022-09-09T04:20:53;21.60;60.20
51476;DHT22;37554;50.362;7.568;2022-09-09T04:23:20;21.60;59.90
51476;DHT22;37554;50.362;7.568;2022-09-09T04:25:47;21.50;59.90
51476;DHT22;37554;50.362;7.568;2022-09-09T04:28:14;21.60;60.00
51476;DHT22;37554;50.362;7.568;2022-09-09T04:30:40;21.50;60.00
51476;DHT22;37554;50.362;7.568;2022-09-09T04:33:07;21.50;60.00
51476;DHT22;37554;50.362;7.568;2022-09-09T04:35:33;21.50;60.00
51476;DHT22;37554;50.362;7.568;2022-09-09T04:37:59;21.50;60.00
51476;DHT22;37554;50.362;7.568;2022-09-09T04:40:24;21.50;60.20
51476;DHT22;37554;50.362;7.568;2022-09-09T04:42:51;21.40;60.10
51476;DHT22;37554;50.362;7.568;2022-09-09T04:45:16;21.40;60.80
51476;DHT22;37554;50.362;7.568;2022-09-09T04:47:42;21.40;60.10
51476;DHT22;37554;50.362;7.568;2022-09-09T04:50:08;21.40;60.20
51476;DHT22;37554;50.362;7.568;2022-09-09T04:52:36;21.40;60.20
51476;DHT22;37554;50.362;7.568;2022-09-09T04:55:03;21.40;60.20
51476;DHT22;37554;50.362;7.568;2022-09-09T04:57:29;21.40;60.30
51476;DHT22;37554;50.362;7.568;2022-09-09T04:59:59;21.40;60.30
51476;DHT22;37554;50.362;7.568;2022-09-09T05:02:26;21.40;60.30
51476;DHT22;37554;50.362;7.568;2022-09-09T05:04:51;21.40;60.30
51476;DHT22;37554;50.362;7.568;2022-09-09T05:07:17;21.40;60.40
51476;DHT22;37554;50.362;7.568;2022-09-09T05:09:42;21.40;60.40
51476;DHT22;37554;50.362;7.568;2022-09-09T05:12:08;21.40;60.50
51476;DHT22;37554;50.362;7.568;2022-09-09T05:14:34;21.40;60.50
51476;DHT22;37554;50.362;7.568;2022-09-09T05:17:02;21.40;60.50
51476;DHT22;37554;50.362;7.568;2022-09-09T05:19:28;21.40;60.50
51476;DHT22;37554;50.362;7.568;2022-09-09T05:21:53;21.40;60.50
51476;DHT22;37554;50.362;7.568;2022-09-09T05:24:19;21.40;60.50
51476;DHT22;37554;50.362;7.568;2022-09-09T05:26:44;21.40;60.60
51476;DHT22;37554;50.362;7.568;2022-09-09T05:29:10;21.40;60.50
51476;DHT22;37554;50.362;7.568;2022-09-09T05:31:36;21.40;60.50
51476;DHT22;37554;50.362;7.568;2022-09-09T05:34:02;21.40;60.60
51476;DHT22;37554;50.362;7.568;2022-09-09T05:36:27;21.40;60.60
51476;DHT22;37554;50.362;7.568;2022-09-09T05:38:53;21.40;60.70
51476;DHT22;37554;50.362;7.568;2022-09-09T05:41:19;21.40;60.70
51476;DHT22;37554;50.362;7.568;2022-09-09T05:43:46;21.40;60.70
51476;DHT22;37554;50.362;7.568;2022-09-09T05:46:20;21.40;61.00
51476;DHT22;37554;50.362;7.568;2022-09-09T05:48:48;21.30;61.40
51476;DHT22;37554;50.362;7.568;2022-09-09T05:51:20;21.20;61.50
51476;DHT22;37554;50.362;7.568;2022-09-09T05:53:48;21.00;62.00
51476;DHT22;37554;50.362;7.568;2022-09-09T05:56:22;21.00;62.30
51476;DHT22;37554;50.362;7.568;2022-09-09T05:58:49;21.00;62.50
51476;DHT22;37554;50.362;7.568;2022-09-09T06:01:20;20.90;62.70
51476;DHT22;37554;50.362;7.568;2022-09-09T06:03:47;20.90;62.90
51476;DHT22;37554;50.362;7.568;2022-09-09T06:06:16;20.80;62.90
51476;DHT22;37554;50.362;7.568;2022-09-09T06:08:44;20.80;63.10
51476;DHT22;37554;50.362;7.568;2022-09-09T06:11:11;20.80;63.10
51476;DHT22;37554;50.362;7.568;2022-09-09T06:13:38;20.80;63.30
51476;DHT22;37554;50.362;7.568;2022-09-09T06:16:07;20.80;63.60
51476;DHT22;37554;50.362;7.568;2022-09-09T06:18:33;20.80;63.60
51476;DHT22;37554;50.362;7.568;2022-09-09T06:21:03;20.80;63.80
51476;DHT22;37554;50.362;7.568;2022-09-09T06:23:33;20.80;63.80
51476;DHT22;37554;50.362;7.568;2022-09-09T06:26:09;20.70;64.10
51476;DHT22;37554;50.362;7.568;2022-09-09T06:28:35;20.70;64.60
51476;DHT22;37554;50.362;7.568;2022-09-09T06:31:06;20.70;64.20
51476;DHT22;37554;50.362;7.568;2022-09-09T06:33:34;20.70;64.30
51476;DHT22;37554;50.362;7.568;2022-09-09T06:36:02;20.70;64.50
51476;DHT22;37554;50.362;7.568;2022-09-09T06:38:29;20.70;64.30
51476;DHT22;37554;50.362;7.568;2022-09-09T06:40:56;20.70;63.90
51476;DHT22;37554;50.362;7.568;2022-09-09T06:43:27;20.70;63.70
51476;DHT22;37554;50.362;7.568;2022-09-09T06:46:01;20.80;63.50
51476;DHT22;37554;50.362;7.568;2022-09-09T06:48:28;20.70;63.30
51476;DHT22;37554;50.362;7.568;2022-09-09T06:51:11;20.70;63.10
51476;DHT22;37554;50.362;7.568;2022-09-09T06:53:39;20.70;63.10
51476;DHT22;37554;50.362;7.568;2022-09-09T06:58:40;20.80;63.00
51476;DHT22;37554;50.362;7.568;2022-09-09T07:01:11;20.70;63.10
51476;DHT22;37554;50.362;7.568;2022-09-09T07:03:38;20.70;62.90
51476;DHT22;37554;50.362;7.568;2022-09-09T07:06:04;20.80;62.70
51476;DHT22;37554;50.362;7.568;2022-09-09T07:08:30;20.80;62.30
51476;DHT22;37554;50.362;7.568;2022-09-09T07:11:02;20.90;62.10
51476;DHT22;37554;50.362;7.568;2022-09-09T07:13:30;20.90;61.80
51476;DHT22;37554;50.362;7.568;2022-09-09T07:16:09;20.90;61.70
51476;DHT22;37554;50.362;7.568;2022-09-09T07:18:39;21.00;61.00
51476;DHT22;37554;50.362;7.568;2022-09-09T07:21:05;21.00;61.00
51476;DHT22;37554;50.362;7.568;2022-09-09T07:23:32;21.10;60.70
51476;DHT22;37554;50.362;7.568;2022-09-09T07:25:58;21.10;60.50
51476;DHT22;37554;50.362;7.568;2022-09-09T07:28:25;21.00;60.10
51476;DHT22;37554;50.362;7.568;2022-09-09T07:30:56;21.00;59.90
51476;DHT22;37554;50.362;7.568;2022-09-09T07:33:24;21.00;59.90
51476;DHT22;37554;50.362;7.568;2022-09-09T07:35:51;21.10;59.50
51476;DHT22;37554;50.362;7.568;2022-09-09T07:38:17;21.10;59.20
51476;DHT22;37554;50.362;7.568;2022-09-09T07:40:43;21.10;59.10
51476;DHT22;37554;50.362;7.568;2022-09-09T07:43:09;21.20;59.00
51476;DHT22;37554;50.362;7.568;2022-09-09T07:45:35;21.30;58.40
51476;DHT22;37554;50.362;7.568;2022-09-09T07:48:01;21.40;58.20
51476;DHT22;37554;50.362;7.568;2022-09-09T07:50:26;21.40;57.80
51476;DHT22;37554;50.362;7.568;2022-09-09T07:52:52;21.30;57.80
51476;DHT22;37554;50.362;7.568;2022-09-09T07:55:22;21.40;58.00
51476;DHT22;37554;50.362;7.568;2022-09-09T07:57:53;21.40;57.90
51476;DHT22;37554;50.362;7.568;2022-09-09T08:00:19;21.50;57.50
51476;DHT22;37554;50.362;7.568;2022-09-09T08:02:45;21.60;57.40
51476;DHT22;37554;50.362;7.568;2022-09-09T08:05:12;21.70;57.20
51476;DHT22;37554;50.362;7.568;2022-09-09T08:07:38;21.80;56.90
51476;DHT22;37554;50.362;7.568;2022-09-09T08:10:04;21.90;56.80
51476;DHT22;37554;50.362;7.568;2022-09-09T08:12:31;22.10;56.70
51476;DHT22;37554;50.362;7.568;2022-09-09T08:14:57;22.30;56.50
51476;DHT22;37554;50.362;7.568;2022-09-09T08:17:23;22.20;56.00
51476;DHT22;37554;50.362;7.568;2022-09-09T08:19:48;22.10;56.00
51476;DHT22;37554;50.362;7.568;2022-09-09T08:22:14;22.10;56.10
51476;DHT22;37554;50.362;7.568;2022-09-09T08:24:40;22.20;56.60
51476;DHT22;37554;50.362;7.568;2022-09-09T08:27:06;22.30;55.80
51476;DHT22;37554;50.362;7.568;2022-09-09T08:29:32;22.50;56.20
51476;DHT22;37554;50.362;7.568;2022-09-09T08:31:57;22.60;55.20
51476;DHT22;37554;50.362;7.568;2022-09-09T08:34:24;22.70;54.80
51476;DHT22;37554;50.362;7.568;2022-09-09T08:36:52;22.70;54.70
51476;DHT22;37554;50.362;7.568;2022-09-09T08:39:20;22.60;54.70
51476;DHT22;37554;50.362;7.568;2022-09-09T08:47:32;22.90;54.10
51476;DHT22;37554;50.362;7.568;2022-09-09T08:52:39;23.10;53.10
51476;DHT22;37554;50.362;7.568;2022-09-09T08:58:20;23.20;52.00
51476;DHT22;37554;50.362;7.568;2022-09-09T09:03:40;22.90;52.50
51476;DHT22;37554;50.362;7.568;2022-09-09T09:09:18;22.60;52.80
51476;DHT22;37554;50.362;7.568;2022-09-09T09:11:58;22.40;53.10
51476;DHT22;37554;50.362;7.568;2022-09-09T09:14:30;22.10;53.80
51476;DHT22;37554;50.362;7.568;2022-09-09T09:17:04;22.10;54.00
51476;DHT22;37554;50.362;7.568;2022-09-09T09:19:33;22.10;53.50
51476;DHT22;37554;50.362;7.568;2022-09-09T09:22:22;22.00;53.60
51476;DHT22;37554;50.362;7.568;2022-09-09T09:27:34;22.20;53.50
51476;DHT22;37554;50.362;7.568;2022-09-09T09:30:23;22.20;53.70
51476;DHT22;37554;50.362;7.568;2022-09-09T09:32:53;22.20;54.40
51476;DHT22;37554;50.362;7.568;2022-09-09T09:35:20;22.20;53.80
51476;DHT22;37554;50.362;7.568;2022-09-09T09:37:46;22.20;54.00
51476;DHT22;37554;50.362;7.568;2022-09-09T09:40:17;22.50;53.00
51476;DHT22;37554;50.362;7.568;2022-09-09T09:42:56;22.90;52.60
51476;DHT22;37554;50.362;7.568;2022-09-09T09:45:35;23.10;51.40
51476;DHT22;37554;50.362;7.568;2022-09-09T09:48:09;23.40;50.50
51476;DHT22;37554;50.362;7.568;2022-09-09T09:50:55;23.50;50.20
51476;DHT22;37554;50.362;7.568;2022-09-09T09:53:28;23.60;49.00
51476;DHT22;37554;50.362;7.568;2022-09-09T09:58:22;23.90;49.10
51476;DHT22;37554;50.362;7.568;2022-09-09T10:00:50;24.20;48.90
51476;DHT22;37554;50.362;7.568;2022-09-09T10:03:28;24.30;48.30
51476;DHT22;37554;50.362;7.568;2022-09-09T10:05:54;24.20;48.20
51476;DHT22;37554;50.362;7.568;2022-09-09T10:08:22;24.20;48.30
51476;DHT22;37554;50.362;7.568;2022-09-09T10:11:28;24.40;48.10
51476;DHT22;37554;50.362;7.568;2022-09-09T10:19:33;24.60;47.10
51476;DHT22;37554;50.362;7.568;2022-09-09T10:22:27;24.50;47.00
51476;DHT22;37554;50.362;7.568;2022-09-09T10:25:14;24.50;46.70
51476;DHT22;37554;50.362;7.568;2022-09-09T10:31:17;24.50;47.80
51476;DHT22;37554;50.362;7.568;2022-09-09T10:33:51;24.50;47.50
51476;DHT22;37554;50.362;7.568;2022-09-09T10:36:25;24.40;47.60
51476;DHT22;37554;50.362;7.568;2022-09-09T10:39:02;24.30;47.70
51476;DHT22;37554;50.362;7.568;2022-09-09T10:41:45;24.10;47.90
51476;DHT22;37554;50.362;7.568;2022-09-09T10:52:47;24.70;46.30
51476;DHT22;37554;50.362;7.568;2022-09-09T10:55:32;24.70;45.90
51476;DHT22;37554;50.362;7.568;2022-09-09T10:58:03;25.00;46.30
51476;DHT22;37554;50.362;7.568;2022-09-09T11:00:42;25.50;45.90
51476;DHT22;37554;50.362;7.568;2022-09-09T11:03:27;25.70;45.00
51476;DHT22;37554;50.362;7.568;2022-09-09T11:06:01;25.70;45.80
51476;DHT22;37554;50.362;7.568;2022-09-09T11:08:31;25.50;45.10
51476;DHT22;37554;50.362;7.568;2022-09-09T11:11:19;25.50;45.30
51476;DHT22;37554;50.362;7.568;2022-09-09T11:16:28;25.40;46.00
51476;DHT22;37554;50.362;7.568;2022-09-09T11:19:04;25.30;45.60
51476;DHT22;37554;50.362;7.568;2022-09-09T11:21:38;25.10;45.80
51476;DHT22;37554;50.362;7.568;2022-09-09T11:24:23;25.40;45.70
51476;DHT22;37554;50.362;7.568;2022-09-09T11:27:16;25.90;45.10
51476;DHT22;37554;50.362;7.568;2022-09-09T11:30:11;26.60;44.20
51476;DHT22;37554;50.362;7.568;2022-09-09T11:35:56;26.70;43.50
51476;DHT22;37554;50.362;7.568;2022-09-09T11:38:44;27.00;43.60
51476;DHT22;37554;50.362;7.568;2022-09-09T11:41:11;27.30;42.30
51476;DHT22;37554;50.362;7.568;2022-09-09T11:43:46;28.10;42.40
51476;DHT22;37554;50.362;7.568;2022-09-09T11:46:15;29.30;40.90
51476;DHT22;37554;50.362;7.568;2022-09-09T11:48:43;29.90;38.90
51476;DHT22;37554;50.362;7.568;2022-09-09T11:51:29;29.90;38.80
51476;DHT22;37554;50.362;7.568;2022-09-09T11:53:59;29.80;37.50
51476;DHT22;37554;50.362;7.568;2022-09-09T11:56:30;30.00;39.00
51476;DHT22;37554;50.362;7.568;2022-09-09T11:58:59;30.20;38.70
51476;DHT22;37554;50.362;7.568;2022-09-09T12:01:33;30.10;38.10
51476;DHT22;37554;50.362;7.568;2022-09-09T12:04:30;29.80;38.20
51476;DHT22;37554;50.362;7.568;2022-09-09T12:17:19;28.10;40.60
51476;DHT22;37554;50.362;7.568;2022-09-09T12:19:45;28.30;39.70
51476;DHT22;37554;50.362;7.568;2022-09-09T12:25:41;28.50;39.40
51476;DHT22;37554;50.362;7.568;2022-09-09T12:28:22;28.60;38.80
51476;DHT22;37554;50.362;7.568;2022-09-09T12:33:37;28.30;39.20
51476;DHT22;37554;50.362;7.568;2022-09-09T12:36:22;28.40;39.80
51476;DHT22;37554;50.362;7.568;2022-09-09T12:38:49;28.00;39.80
51476;DHT22;37554;50.362;7.568;2022-09-09T12:41:25;27.50;40.20
51476;DHT22;37554;50.362;7.568;2022-09-09T12:43:51;27.10;40.40
51476;DHT22;37554;50.362;7.568;2022-09-09T12:46:36;26.80;41.00
51476;DHT22;37554;50.362;7.568;2022-09-09T12:49:03;26.60;40.50
51476;DHT22;37554;50.362;7.568;2022-09-09T12:51:32;26.80;41.40
51476;DHT22;37554;50.362;7.568;2022-09-09T12:53:59;27.10;41.00
51476;DHT22;37554;50.362;7.568;2022-09-09T12:56:27;27.40;40.70
51476;DHT22;37554;50.362;7.568;2022-09-09T12:58:56;27.60;40.50
51476;DHT22;37554;50.362;7.568;2022-09-09T13:01:29;27.60;40.00
51476;DHT22;37554;50.362;7.568;2022-09-09T13:03:56;27.40;40.00
51476;DHT22;37554;50.362;7.568;2022-09-09T13:06:26;27.50;40.20
51476;DHT22;37554;50.362;7.568;2022-09-09T13:08:53;27.50;40.00
51476;DHT22;37554;50.362;7.568;2022-09-09T13:11:50;27.60;39.80
51476;DHT22;37554;50.362;7.568;2022-09-09T13:14:23;27.50;39.50
51476;DHT22;37554;50.362;7.568;2022-09-09T13:17:00;27.70;39.60
51476;DHT22;37554;50.362;7.568;2022-09-09T13:19:29;27.60;39.10
51476;DHT22;37554;50.362;7.568;2022-09-09T13:21:57;27.50;39.70
51476;DHT22;37554;50.362;7.568;2022-09-09T13:24:33;27.60;39.70
51476;DHT22;37554;50.362;7.568;2022-09-09T13:27:05;27.50;39.00
51476;DHT22;37554;50.362;7.568;2022-09-09T13:29:53;27.10;39.90
51476;DHT22;37554;50.362;7.568;2022-09-09T13:32:20;26.90;39.90
51476;DHT22;37554;50.362;7.568;2022-09-09T13:34:53;26.70;40.40
51476;DHT22;37554;50.362;7.568;2022-09-09T13:37:33;26.50;40.70
51476;DHT22;37554;50.362;7.568;2022-09-09T13:40:00;26.50;40.70
51476;DHT22;37554;50.362;7.568;2022-09-09T13:42:29;26.50;41.20
51476;DHT22;37554;50.362;7.568;2022-09-09T13:44:57;26.60;40.70
51476;DHT22;37554;50.362;7.568;2022-09-09T13:47:32;26.60;41.40
51476;DHT22;37554;50.362;7.568;2022-09-09T13:49:58;26.60;41.00
51476;DHT22;37554;50.362;7.568;2022-09-09T13:52:30;26.40;41.60
51476;DHT22;37554;50.362;7.568;2022-09-09T13:54:56;26.20;42.30
51476;DHT22;37554;50.362;7.568;2022-09-09T13:57:24;25.90;42.30
51476;DHT22;37554;50.362;7.568;2022-09-09T13:59:51;25.80;42.40
51476;DHT22;37554;50.362;7.568;2022-09-09T14:02:18;25.70;42.50
51476;DHT22;37554;50.362;7.568;2022-09-09T14:04:44;25.90;42.80
51476;DHT22;37554;50.362;7.568;2022-09-09T14:07:17;26.10;42.90
51476;DHT22;37554;50.362;7.568;2022-09-09T14:09:43;26.20;42.50
51476;DHT22;37554;50.362;7.568;2022-09-09T14:12:11;26.20;42.60
51476;DHT22;37554;50.362;7.568;2022-09-09T14:14:37;26.00;42.00
51476;DHT22;37554;50.362;7.568;2022-09-09T14:17:03;26.10;42.10
51476;DHT22;37554;50.362;7.568;2022-09-09T14:19:29;26.10;42.10
51476;DHT22;37554;50.362;7.568;2022-09-09T14:21:56;26.00;42.40
51476;DHT22;37554;50.362;7.568;2022-09-09T14:24:22;25.70;42.50
51476;DHT22;37554;50.362;7.568;2022-09-09T14:26:47;25.50;43.10
51476;DHT22;37554;50.362;7.568;2022-09-09T14:29:13;25.30;43.60
51476;DHT22;37554;50.362;7.568;2022-09-09T14:31:38;25.10;44.20
51476;DHT22;37554;50.362;7.568;2022-09-09T14:34:04;25.00;44.70
51476;DHT22;37554;50.362;7.568;2022-09-09T14:36:31;25.10;45.00
51476;DHT22;37554;50.362;7.568;2022-09-09T14:38:57;25.10;45.20
51476;DHT22;37554;50.362;7.568;2022-09-09T14:41:23;25.00;46.00
51476;DHT22;37554;50.362;7.568;2022-09-09T14:43:50;25.00;46.70
51476;DHT22;37554;50.362;7.568;2022-09-09T14:46:19;25.10;47.20
51476;DHT22;37554;50.362;7.568;2022-09-09T14:48:45;25.20;47.80
51476;DHT22;37554;50.362;7.568;2022-09-09T14:51:22;25.30;48.20
51476;DHT22;37554;50.362;7.568;2022-09-09T14:53:50;25.30;48.70
51476;DHT22;37554;50.362;7.568;2022-09-09T14:56:17;25.30;48.70
51476;DHT22;37554;50.362;7.568;2022-09-09T14:58:44;25.30;48.80
51476;DHT22;37554;50.362;7.568;2022-09-09T15:01:12;25.30;49.00
51476;DHT22;37554;50.362;7.568;2022-09-09T15:03:39;25.30;49.10
51476;DHT22;37554;50.362;7.568;2022-09-09T15:06:13;25.30;49.10
51476;DHT22;37554;50.362;7.568;2022-09-09T15:08:40;25.30;49.30
51476;DHT22;37554;50.362;7.568;2022-09-09T15:11:07;25.30;49.10
51476;DHT22;37554;50.362;7.568;2022-09-09T15:13:33;25.40;49.60
51476;DHT22;37554;50.362;7.568;2022-09-09T15:16:14;25.40;49.90
51476;DHT22;37554;50.362;7.568;2022-09-09T15:18:41;25.30;50.80
51476;DHT22;37554;50.362;7.568;2022-09-09T15:21:11;25.30;50.80
51476;DHT22;37554;50.362;7.568;2022-09-09T15:23:36;25.20;51.40
51476;DHT22;37554;50.362;7.568;2022-09-09T15:26:03;25.20;51.50
51476;DHT22;37554;50.362;7.568;2022-09-09T15:28:31;25.20;51.80
51476;DHT22;37554;50.362;7.568;2022-09-09T15:30:57;25.20;51.80
51476;DHT22;37554;50.362;7.568;2022-09-09T15:33:23;25.30;51.70
51476;DHT22;37554;50.362;7.568;2022-09-09T15:35:49;25.40;51.60
51476;DHT22;37554;50.362;7.568;2022-09-09T15:38:15;25.40;51.70
51476;DHT22;37554;50.362;7.568;2022-09-09T15:40:43;25.40;51.70
51476;DHT22;37554;50.362;7.568;2022-09-09T15:43:09;25.40;51.70
51476;DHT22;37554;50.362;7.568;2022-09-09T15:45:35;25.50;51.80
51476;DHT22;37554;50.362;7.568;2022-09-09T15:48:01;25.50;51.80
51476;DHT22;37554;50.362;7.568;2022-09-09T15:50:27;25.60;51.90
51476;DHT22;37554;50.362;7.568;2022-09-09T15:52:55;25.70;51.80
51476;DHT22;37554;50.362;7.568;2022-09-09T15:55:20;25.70;51.80
51476;DHT22;37554;50.362;7.568;2022-09-09T15:57:47;25.70;52.00
51476;DHT22;37554;50.362;7.568;2022-09-09T16:00:13;25.70;51.90
51476;DHT22;37554;50.362;7.568;2022-09-09T16:02:39;25.70;52.00
51476;DHT22;37554;50.362;7.568;2022-09-09T16:05:05;25.70;52.10
51476;DHT22;37554;50.362;7.568;2022-09-09T16:07:31;25.70;52.10
51476;DHT22;37554;50.362;7.568;2022-09-09T16:09:57;25.70;52.10
51476;DHT22;37554;50.362;7.568;2022-09-09T16:12:22;25.80;52.30
51476;DHT22;37554;50.362;7.568;2022-09-09T16:14:48;25.80;52.30
51476;DHT22;37554;50.362;7.568;2022-09-09T16:17:14;25.80;52.40
51476;DHT22;37554;50.362;7.568;2022-09-09T16:19:40;25.80;52.50
51476;DHT22;37554;50.362;7.568;2022-09-09T16:22:06;25.80;52.60
51476;DHT22;37554;50.362;7.568;2022-09-09T16:24:32;25.80;52.60
51476;DHT22;37554;50.362;7.568;2022-09-09T16:26:58;25.80;52.50
51476;DHT22;37554;50.362;7.568;2022-09-09T16:29:24;25.70;52.50
51476;DHT22;37554;50.362;7.568;2022-09-09T16:31:53;25.70;52.60
51476;DHT22;37554;50.362;7.568;2022-09-09T16:34:19;25.70;52.70
51476;DHT22;37554;50.362;7.568;2022-09-09T16:36:47;25.60;52.80
51476;DHT22;37554;50.362;7.568;2022-09-09T16:39:15;25.60;52.90
51476;DHT22;37554;50.362;7.568;2022-09-09T16:41:42;25.50;53.00
51476;DHT22;37554;50.362;7.568;2022-09-09T16:44:10;25.50;53.20
51476;DHT22;37554;50.362;7.568;2022-09-09T16:46:41;25.50;53.20
51476;DHT22;37554;50.362;7.568;2022-09-09T16:49:11;25.40;53.30
51476;DHT22;37554;50.362;7.568;2022-09-09T16:51:39;25.40;53.30
51476;DHT22;37554;50.362;7.568;2022-09-09T16:54:07;25.40;53.20
51476;DHT22;37554;50.362;7.568;2022-09-09T16:56:35;25.30;53.20
51476;DHT22;37554;50.362;7.568;2022-09-09T16:59:16;25.30;53.20
51476;DHT22;37554;50.362;7.568;2022-09-09T17:01:44;25.20;53.20
51476;DHT22;37554;50.362;7.568;2022-09-09T17:04:13;25.20;53.30
51476;DHT22;37554;50.362;7.568;2022-09-09T17:06:40;25.10;53.30
51476;DHT22;37554;50.362;7.568;2022-09-09T17:09:11;25.10;53.40
51476;DHT22;37554;50.362;7.568;2022-09-09T17:11:38;25.10;53.50
51476;DHT22;37554;50.362;7.568;2022-09-09T17:14:06;25.00;53.40
51476;DHT22;37554;50.362;7.568;2022-09-09T17:16:33;25.00;53.50
51476;DHT22;37554;50.362;7.568;2022-09-09T17:19:03;24.90;53.50
51476;DHT22;37554;50.362;7.568;2022-09-09T17:21:29;24.90;53.60
51476;DHT22;37554;50.362;7.568;2022-09-09T17:23:56;24.80;53.60
51476;DHT22;37554;50.362;7.568;2022-09-09T17:26:25;24.80;53.50
51476;DHT22;37554;50.362;7.568;2022-09-09T17:28:52;24.80;53.60
51476;DHT22;37554;50.362;7.568;2022-09-09T17:31:19;24.70;53.50
51476;DHT22;37554;50.362;7.568;2022-09-09T17:33:49;24.70;54.30
51476;DHT22;37554;50.362;7.568;2022-09-09T17:36:20;24.70;53.60
51476;DHT22;37554;50.362;7.568;2022-09-09T17:38:47;24.70;53.60